createdAt,value
2019-05-10T00:00:28.735Z,11.60
2019-05-10T00:03:03.010Z,11.60
2019-05-10T00:05:37.424Z,11.60
2019-05-10T00:08:12.581Z,11.50
2019-05-10T00:10:41.415Z,11.60
2019-05-10T00:13:11.007Z,11.50
2019-05-10T00:15:39.857Z,11.60
2019-05-10T00:18:08.706Z,11.60
2019-05-10T00:20:38.274Z,11.60
2019-05-10T00:23:07.099Z,11.60
2019-05-10T00:25:35.933Z,11.60
2019-05-10T00:28:04.765Z,11.60
2019-05-10T00:30:33.597Z,11.60
2019-05-10T00:33:02.435Z,11.70
2019-05-10T00:35:31.282Z,11.60
2019-05-10T00:38:00.135Z,11.60
2019-05-10T00:40:28.991Z,11.50
2019-05-10T00:42:57.839Z,11.60
2019-05-10T00:45:26.721Z,11.60
2019-05-10T00:50:24.958Z,11.60
2019-05-10T00:52:54.535Z,11.50
2019-05-10T00:55:23.383Z,11.50
2019-05-10T00:57:52.239Z,11.50
2019-05-10T01:00:21.087Z,11.60
2019-05-10T01:02:49.927Z,11.60
2019-05-10T01:05:18.755Z,11.60
2019-05-10T01:07:48.345Z,11.50
2019-05-10T01:10:17.189Z,11.50
2019-05-10T01:12:46.047Z,11.60
2019-05-10T01:15:15.637Z,11.50
2019-05-10T01:17:45.225Z,11.50
2019-05-10T01:20:14.057Z,11.60
2019-05-10T01:22:42.903Z,11.50
2019-05-10T01:25:11.738Z,11.50
2019-05-10T01:27:40.621Z,11.50
2019-05-10T01:30:09.444Z,11.50
2019-05-10T01:32:38.278Z,11.60
2019-05-10T01:35:07.849Z,11.50
2019-05-10T01:37:36.680Z,11.50
2019-05-10T01:40:06.274Z,11.50
2019-05-10T01:42:35.122Z,11.50
2019-05-10T01:45:04.854Z,11.50
2019-05-10T01:47:33.731Z,11.40
2019-05-10T01:50:02.521Z,11.40
2019-05-10T01:52:31.356Z,11.40
2019-05-10T01:55:00.950Z,11.40
2019-05-10T01:57:29.787Z,11.40
2019-05-10T01:59:58.618Z,11.40
2019-05-10T02:02:27.481Z,11.30
2019-05-10T02:04:56.316Z,11.40
2019-05-10T02:07:25.902Z,11.30
2019-05-10T02:09:54.739Z,11.40
2019-05-10T02:12:23.568Z,11.30
2019-05-10T02:14:52.486Z,11.30
2019-05-10T02:17:21.293Z,11.30
2019-05-10T02:19:50.138Z,11.20
2019-05-10T02:22:18.989Z,11.20
2019-05-10T02:24:47.811Z,11.20
2019-05-10T02:27:16.793Z,11.20
2019-05-10T02:29:45.681Z,11.20
2019-05-10T02:32:14.491Z,11.10
2019-05-10T02:34:43.323Z,11.10
2019-05-10T02:37:12.162Z,11.10
2019-05-10T02:42:15.156Z,11.10
2019-05-10T02:44:43.987Z,11.00
2019-05-10T02:47:12.943Z,11.00
2019-05-10T02:49:42.548Z,11.00
2019-05-10T02:52:11.430Z,11.00
2019-05-10T02:54:40.224Z,10.90
2019-05-10T02:57:09.059Z,10.90
2019-05-10T02:59:37.903Z,10.90
2019-05-10T03:02:06.755Z,10.90
2019-05-10T03:04:36.341Z,10.80
2019-05-10T03:07:05.182Z,10.70
2019-05-10T03:09:34.061Z,10.70
2019-05-10T03:12:11.315Z,10.70
2019-05-10T03:17:09.613Z,10.60
2019-05-10T03:19:38.441Z,10.60
2019-05-10T03:22:07.296Z,10.60
2019-05-10T03:24:36.889Z,10.50
2019-05-10T03:27:05.746Z,10.70
2019-05-10T03:29:34.598Z,10.70
2019-05-10T03:32:03.477Z,10.60
2019-05-10T03:34:32.299Z,10.60
2019-05-10T03:37:01.873Z,10.60
2019-05-10T03:39:30.709Z,10.60
2019-05-10T03:41:59.545Z,10.60
2019-05-10T03:44:29.143Z,10.60
2019-05-10T03:46:57.993Z,10.60
2019-05-10T03:49:26.833Z,10.60
2019-05-10T03:51:56.419Z,10.50
2019-05-10T03:54:25.256Z,10.60
2019-05-10T03:57:10.937Z,10.60
2019-05-10T03:59:22.929Z,10.50
2019-05-10T04:01:51.773Z,10.40
2019-05-10T04:04:20.652Z,10.40
2019-05-10T04:06:49.491Z,10.30
2019-05-10T04:09:18.324Z,10.40
2019-05-10T04:11:47.213Z,10.30
2019-05-10T04:14:16.034Z,10.30
2019-05-10T04:16:44.876Z,10.30
2019-05-10T04:19:13.717Z,10.30
2019-05-10T04:21:43.340Z,10.20
2019-05-10T04:24:12.921Z,10.20
2019-05-10T04:26:42.539Z,10.30
2019-05-10T04:29:11.341Z,10.30
2019-05-10T04:31:40.187Z,10.20
2019-05-10T04:34:09.038Z,10.20
2019-05-10T04:36:37.870Z,10.10
2019-05-10T04:39:06.728Z,10.10
2019-05-10T04:41:35.590Z,10.20
2019-05-10T04:44:04.433Z,10.20
2019-05-10T04:46:33.831Z,10.20
2019-05-10T04:49:02.663Z,10.20
2019-05-10T04:51:31.549Z,10.10
2019-05-10T04:54:00.411Z,10.20
2019-05-10T04:56:29.258Z,10.30
2019-05-10T04:58:58.110Z,10.30
2019-05-10T05:01:27.702Z,10.30
2019-05-10T05:06:25.991Z,10.40
2019-05-10T05:08:54.958Z,10.40
2019-05-10T05:11:23.757Z,10.40
2019-05-10T05:13:52.571Z,10.40
2019-05-10T05:16:21.447Z,10.40
2019-05-10T05:18:50.267Z,10.50
2019-05-10T05:21:19.096Z,10.50
2019-05-10T05:23:47.938Z,10.60
2019-05-10T05:26:16.779Z,10.60
2019-05-10T05:28:45.623Z,10.80
2019-05-10T05:31:15.205Z,10.90
2019-05-10T05:33:44.063Z,11.00
2019-05-10T05:36:12.901Z,11.10
2019-05-10T05:38:47.265Z,11.10
2019-05-10T05:41:11.354Z,11.20
2019-05-10T05:43:45.549Z,11.20
2019-05-10T05:46:09.066Z,11.20
2019-05-10T05:48:40.309Z,11.20
2019-05-10T05:51:07.528Z,11.20
2019-05-10T05:53:42.147Z,11.20
2019-05-10T05:56:12.735Z,11.20
2019-05-10T05:58:37.946Z,11.20
2019-05-10T06:01:03.578Z,11.20
2019-05-10T06:03:32.414Z,11.30
2019-05-10T06:06:01.229Z,11.30
2019-05-10T06:08:30.807Z,11.30
2019-05-10T06:11:00.209Z,11.30
2019-05-10T06:13:30.454Z,11.40
2019-05-10T06:16:00.155Z,11.40
2019-05-10T06:18:26.999Z,11.50
2019-05-10T06:20:55.831Z,11.50
2019-05-10T06:23:29.135Z,11.60
2019-05-10T06:25:54.266Z,11.60
2019-05-10T06:28:28.669Z,11.70
2019-05-10T06:30:51.935Z,11.70
2019-05-10T06:33:20.765Z,11.80
2019-05-10T06:35:49.610Z,11.80
2019-05-10T06:38:18.459Z,11.80
2019-05-10T06:40:48.170Z,11.80
2019-05-10T06:43:16.900Z,11.80
2019-05-10T06:45:46.657Z,11.80
2019-05-10T06:48:14.613Z,11.80
2019-05-10T06:50:43.444Z,11.90
2019-05-10T06:53:12.290Z,11.90
2019-05-10T06:55:41.128Z,11.90
2019-05-10T06:58:09.964Z,11.90
2019-05-10T07:00:44.837Z,11.90
2019-05-10T07:03:08.417Z,12.00
2019-05-10T07:07:42.627Z,12.10
2019-05-10T07:10:13.015Z,12.20
2019-05-10T07:12:18.642Z,12.20
2019-05-10T07:14:47.497Z,12.30
2019-05-10T07:17:16.345Z,12.40
2019-05-10T07:19:53.622Z,12.50
2019-05-10T07:22:14.025Z,12.60
2019-05-10T07:24:42.873Z,12.70
2019-05-10T07:27:11.786Z,12.70
2019-05-10T07:29:43.685Z,12.80
2019-05-10T07:32:10.148Z,12.80
2019-05-10T07:34:39.006Z,12.90
2019-05-10T07:37:08.559Z,13.00
2019-05-10T07:39:37.399Z,13.00
2019-05-10T07:42:07.027Z,13.10
2019-05-10T07:44:35.077Z,13.00
2019-05-10T07:47:03.926Z,13.00
2019-05-10T07:49:33.508Z,13.10
2019-05-10T07:52:04.281Z,13.20
2019-05-10T07:54:31.182Z,13.20
2019-05-10T07:59:30.386Z,13.20
2019-05-10T08:01:55.745Z,13.50
2019-05-10T08:04:31.459Z,13.60
2019-05-10T08:06:54.223Z,13.70
2019-05-10T08:09:23.020Z,13.70
2019-05-10T08:11:54.152Z,13.60
2019-05-10T08:14:24.772Z,13.50
2019-05-10T08:16:58.293Z,13.50
2019-05-10T08:19:19.104Z,13.40
2019-05-10T08:21:48.880Z,13.60
2019-05-10T08:24:16.884Z,13.70
2019-05-10T08:26:45.667Z,13.60
2019-05-10T08:29:16.929Z,13.60
2019-05-10T08:31:50.465Z,13.50
2019-05-10T08:34:12.927Z,13.50
2019-05-10T08:36:45.853Z,13.40
2019-05-10T08:39:13.594Z,13.40
2019-05-10T08:41:40.223Z,13.40
2019-05-10T08:44:18.609Z,13.40
2019-05-10T08:46:41.275Z,13.50
2019-05-10T08:49:06.767Z,13.50
2019-05-10T08:51:44.168Z,13.50
2019-05-10T08:54:05.237Z,13.50
2019-05-10T08:56:34.084Z,13.60
2019-05-10T08:59:03.861Z,13.60
2019-05-10T09:01:38.768Z,13.60
2019-05-10T09:04:06.554Z,13.70
2019-05-10T09:06:32.577Z,13.80
2019-05-10T09:09:05.954Z,13.80
2019-05-10T09:11:28.591Z,13.90
2019-05-10T09:13:57.910Z,13.80
2019-05-10T09:16:28.997Z,13.80
2019-05-10T09:18:55.864Z,14.00
2019-05-10T09:21:24.703Z,14.10
2019-05-10T09:24:01.590Z,14.30
2019-05-10T09:26:23.121Z,14.60
2019-05-10T09:28:53.456Z,15.00
2019-05-10T09:31:22.725Z,15.30
2019-05-10T09:33:51.498Z,15.60
2019-05-10T09:36:23.201Z,15.70
2019-05-10T09:38:47.308Z,15.50
2019-05-10T09:41:16.142Z,15.60
2019-05-10T09:43:48.657Z,15.60
2019-05-10T09:46:14.160Z,15.40
2019-05-10T09:48:44.946Z,15.20
2019-05-10T09:51:13.808Z,15.10
2019-05-10T09:53:40.378Z,15.00
2019-05-10T09:56:09.173Z,14.90
2019-05-10T09:58:38.750Z,14.80
2019-05-10T10:01:16.179Z,14.80
2019-05-10T10:03:43.195Z,14.80
2019-05-10T10:06:07.584Z,14.80
2019-05-10T10:08:33.367Z,14.90
2019-05-10T10:11:13.297Z,15.20
2019-05-10T10:13:39.591Z,15.60
2019-05-10T10:16:04.079Z,15.80
2019-05-10T10:18:30.369Z,16.00
2019-05-10T10:20:59.211Z,16.20
2019-05-10T10:23:33.048Z,16.20
2019-05-10T10:25:58.081Z,16.20
2019-05-10T10:28:28.384Z,16.00
2019-05-10T10:31:03.039Z,15.90
2019-05-10T10:33:26.279Z,15.80
2019-05-10T10:35:58.159Z,15.40
2019-05-10T10:38:21.797Z,15.00
2019-05-10T10:40:50.631Z,15.00
2019-05-10T10:43:19.474Z,15.30
2019-05-10T10:45:48.317Z,15.40
2019-05-10T10:48:17.857Z,15.60
2019-05-10T10:50:53.883Z,15.80
2019-05-10T10:53:17.811Z,15.80
2019-05-10T10:55:46.098Z,15.80
2019-05-10T10:58:14.019Z,15.90
2019-05-10T11:00:43.595Z,15.90
2019-05-10T11:03:12.434Z,15.90
2019-05-10T11:05:41.271Z,15.90
2019-05-10T11:08:11.184Z,15.90
2019-05-10T11:10:40.470Z,16.10
2019-05-10T11:13:13.397Z,16.00
2019-05-10T11:15:36.791Z,15.90
2019-05-10T11:18:06.261Z,15.70
2019-05-10T11:20:35.121Z,15.60
2019-05-10T11:23:03.940Z,15.60
2019-05-10T11:25:32.776Z,15.60
2019-05-10T11:28:01.938Z,15.70
2019-05-10T11:30:32.558Z,15.70
2019-05-10T11:33:00.485Z,15.70
2019-05-10T11:35:33.733Z,15.70
2019-05-10T11:37:57.731Z,15.60
2019-05-10T11:40:30.763Z,15.60
2019-05-10T11:42:56.177Z,15.40
2019-05-10T11:45:26.124Z,15.40
2019-05-10T11:47:58.957Z,15.30
2019-05-10T11:50:31.471Z,15.30
2019-05-10T11:52:52.296Z,15.40
2019-05-10T11:55:21.869Z,15.50
2019-05-10T11:59:05.019Z,15.50
2019-05-10T12:00:25.640Z,15.50
2019-05-10T12:03:03.471Z,15.80
2019-05-10T12:05:20.401Z,16.20
2019-05-10T12:07:46.072Z,16.40
2019-05-10T12:10:20.732Z,16.70
2019-05-10T12:12:59.773Z,16.80
2019-05-10T12:15:13.849Z,16.80
2019-05-10T12:17:46.384Z,16.80
2019-05-10T12:20:12.573Z,16.60
2019-05-10T12:22:42.032Z,16.90
2019-05-10T12:25:34.838Z,17.20
2019-05-10T12:27:45.148Z,17.20
2019-05-10T12:30:05.721Z,17.20
2019-05-10T12:32:38.773Z,17.20
2019-05-10T12:37:39.492Z,17.10
2019-05-10T12:40:11.836Z,17.00
2019-05-10T12:42:35.622Z,16.90
2019-05-10T12:45:06.160Z,16.80
2019-05-10T12:47:35.009Z,16.80
2019-05-10T12:50:06.544Z,16.80
2019-05-10T12:52:35.409Z,16.80
2019-05-10T12:55:04.243Z,17.10
2019-05-10T12:57:33.817Z,17.20
2019-05-10T13:00:06.803Z,17.30
2019-05-10T13:02:31.711Z,17.20
2019-05-10T13:07:30.016Z,17.20
2019-05-10T13:10:04.209Z,17.10
2019-05-10T13:12:27.741Z,16.90
2019-05-10T13:14:56.589Z,16.90
2019-05-10T13:17:25.447Z,16.70
2019-05-10T13:19:58.535Z,16.80
2019-05-10T13:22:23.128Z,16.70
2019-05-10T13:24:51.957Z,16.50
2019-05-10T13:27:20.801Z,16.30
2019-05-10T13:29:53.345Z,16.30
2019-05-10T13:32:20.717Z,16.50
2019-05-10T13:34:47.314Z,17.20
2019-05-10T13:37:23.083Z,17.70
2019-05-10T13:39:47.117Z,17.90
2019-05-10T13:42:15.969Z,18.10
2019-05-10T13:44:44.836Z,18.30
2019-05-10T13:49:43.067Z,18.10
2019-05-10T13:52:11.910Z,18.00
2019-05-10T13:54:40.748Z,17.80
2019-05-10T13:57:09.621Z,17.80
2019-05-10T13:59:38.490Z,17.80
2019-05-10T14:02:07.321Z,17.90
2019-05-10T14:04:38.717Z,18.60
2019-05-10T14:07:05.062Z,19.00
2019-05-10T14:09:33.900Z,19.10
2019-05-10T14:12:02.783Z,19.40
2019-05-10T14:14:31.643Z,19.80
2019-05-10T14:17:01.186Z,19.60
2019-05-10T14:19:30.042Z,19.10
2019-05-10T14:21:58.868Z,18.70
2019-05-10T14:24:27.721Z,18.50
2019-05-10T14:26:57.585Z,18.30
2019-05-10T14:29:32.854Z,18.00
2019-05-10T14:34:23.699Z,18.20
2019-05-10T14:36:52.564Z,18.10
2019-05-10T14:39:21.416Z,18.10
2019-05-10T14:41:52.440Z,18.10
2019-05-10T14:44:19.929Z,18.10
2019-05-10T14:46:48.769Z,18.10
2019-05-10T14:49:17.821Z,18.40
2019-05-10T14:51:58.391Z,19.00
2019-05-10T14:54:15.491Z,19.50
2019-05-10T14:56:44.354Z,19.10
2019-05-10T14:59:13.191Z,19.00
2019-05-10T15:01:45.165Z,18.70
2019-05-10T15:04:11.617Z,18.50
2019-05-10T15:06:40.473Z,18.30
2019-05-10T15:09:20.395Z,18.30
2019-05-10T15:11:38.931Z,18.20
2019-05-10T15:14:07.832Z,18.20
2019-05-10T15:16:36.635Z,18.30
2019-05-10T15:19:05.479Z,18.30
2019-05-10T15:21:34.796Z,18.40
2019-05-10T15:24:03.923Z,18.40
2019-05-10T15:26:37.313Z,18.50
2019-05-10T15:29:02.831Z,19.10
2019-05-10T15:34:04.928Z,19.40
2019-05-10T15:36:31.757Z,19.30
2019-05-10T15:38:58.818Z,19.20
2019-05-10T15:41:28.854Z,19.00
2019-05-10T15:43:57.721Z,19.00
2019-05-10T15:46:35.439Z,18.70
2019-05-10T15:48:55.410Z,18.70
2019-05-10T15:51:35.753Z,18.60
2019-05-10T15:54:03.909Z,18.40
2019-05-10T15:57:39.145Z,18.40
2019-05-10T16:00:07.958Z,18.20
2019-05-10T16:02:37.601Z,18.10
2019-05-10T16:05:23.406Z,18.00
2019-05-10T16:10:04.753Z,17.80
2019-05-10T16:12:37.871Z,17.70
2019-05-10T16:15:02.412Z,17.70
2019-05-10T16:17:31.284Z,17.60
2019-05-10T16:20:01.270Z,17.50
2019-05-10T16:22:30.237Z,17.50
2019-05-10T16:25:00.699Z,17.50
2019-05-10T16:27:27.010Z,17.50
2019-05-10T16:29:55.850Z,17.50
2019-05-10T16:32:29.230Z,17.60
2019-05-10T16:34:53.524Z,17.40
2019-05-10T16:37:22.386Z,17.40
2019-05-10T16:39:51.248Z,17.40
2019-05-10T16:42:20.093Z,17.40
2019-05-10T16:44:48.988Z,17.50
2019-05-10T16:47:17.815Z,17.50
2019-05-10T16:49:47.801Z,17.50
2019-05-10T16:52:19.636Z,17.50
2019-05-10T16:54:44.356Z,17.60
2019-05-10T16:57:13.959Z,17.60
2019-05-10T16:59:42.809Z,17.70
2019-05-10T17:02:12.032Z,17.60
2019-05-10T17:04:41.270Z,17.50
2019-05-10T17:07:13.081Z,17.70
2019-05-10T17:09:39.025Z,17.70
2019-05-10T17:12:08.610Z,17.60
2019-05-10T17:14:37.455Z,17.70
2019-05-10T17:17:06.309Z,17.70
2019-05-10T17:19:36.142Z,17.80
2019-05-10T17:22:04.781Z,17.80
2019-05-10T17:24:33.625Z,17.70
2019-05-10T17:27:02.470Z,17.70
2019-05-10T17:29:31.304Z,17.60
2019-05-10T17:32:00.138Z,17.40
2019-05-10T17:34:29.692Z,17.30
2019-05-10T17:36:59.640Z,17.30
2019-05-10T17:39:32.366Z,17.30
2019-05-10T17:41:57.619Z,17.30
2019-05-10T17:44:24.903Z,17.20
2019-05-10T17:46:55.581Z,17.10
2019-05-10T17:49:22.909Z,17.10
2019-05-10T17:51:51.794Z,17.10
2019-05-10T17:54:20.605Z,17.20
2019-05-10T17:56:49.455Z,17.10
2019-05-10T17:59:18.350Z,17.00
2019-05-10T18:01:47.161Z,16.90
2019-05-10T18:04:16.773Z,16.80
2019-05-10T18:06:45.618Z,16.80
2019-05-10T18:09:14.466Z,16.70
2019-05-10T18:11:44.959Z,16.60
2019-05-10T18:14:17.849Z,16.50
2019-05-10T18:19:11.236Z,16.50
2019-05-10T18:21:40.046Z,16.40
2019-05-10T18:24:08.890Z,16.40
2019-05-10T18:26:39.699Z,16.30
2019-05-10T18:29:06.596Z,16.30
2019-05-10T18:31:35.444Z,16.20
2019-05-10T18:34:04.282Z,16.10
2019-05-10T18:36:50.550Z,16.00
2019-05-10T18:39:01.974Z,15.90
2019-05-10T18:41:30.801Z,15.80
2019-05-10T18:43:59.648Z,15.70
2019-05-10T18:46:28.523Z,15.70
2019-05-10T18:48:57.377Z,15.60
2019-05-10T18:51:26.460Z,15.50
2019-05-10T18:53:55.108Z,15.40
2019-05-10T18:56:25.385Z,15.30
2019-05-10T18:58:52.867Z,15.30
2019-05-10T19:01:22.447Z,15.30
2019-05-10T19:03:51.294Z,15.30
2019-05-10T19:06:20.176Z,15.40
2019-05-10T19:08:49.036Z,15.30
2019-05-10T19:11:18.703Z,15.30
2019-05-10T19:13:53.685Z,15.40
2019-05-10T19:16:16.340Z,15.30
2019-05-10T19:18:45.956Z,15.30
2019-05-10T19:21:15.557Z,15.20
2019-05-10T19:23:44.411Z,15.10
2019-05-10T19:26:13.258Z,15.00
2019-05-10T19:28:42.096Z,15.10
2019-05-10T19:31:10.950Z,15.00
2019-05-10T19:33:39.804Z,14.90
2019-05-10T19:36:13.170Z,14.90
2019-05-10T19:38:37.525Z,14.80
2019-05-10T19:41:06.395Z,14.80
2019-05-10T19:43:35.269Z,14.80
2019-05-10T19:46:04.110Z,14.70
2019-05-10T19:48:35.392Z,14.70
2019-05-10T19:51:02.936Z,14.70
2019-05-10T19:53:30.747Z,14.70
2019-05-10T19:55:59.682Z,14.70
2019-05-10T19:58:32.411Z,14.70
2019-05-10T20:00:57.405Z,14.70
2019-05-10T20:03:26.238Z,14.70
2019-05-10T20:05:55.158Z,14.70
2019-05-10T20:08:24.015Z,14.70
2019-05-10T20:10:52.875Z,14.80
2019-05-10T20:13:21.760Z,14.70
2019-05-10T20:15:50.567Z,14.70
2019-05-10T20:18:19.408Z,14.80
2019-05-10T20:20:48.243Z,14.80
2019-05-10T20:23:17.113Z,14.70
2019-05-10T20:25:45.959Z,14.60
2019-05-10T20:28:14.853Z,14.60
2019-05-10T20:30:43.696Z,14.60
2019-05-10T20:33:12.543Z,14.50
2019-05-10T20:35:42.131Z,14.50
2019-05-10T20:38:10.967Z,14.50
2019-05-10T20:40:39.816Z,14.50
2019-05-10T20:43:08.671Z,14.50
2019-05-10T20:45:37.520Z,14.40
2019-05-10T20:48:06.419Z,14.40
2019-05-10T20:50:35.236Z,14.50
2019-05-10T20:53:04.824Z,14.50
2019-05-10T20:55:33.678Z,14.50
2019-05-10T20:58:02.587Z,14.50
2019-05-10T21:00:31.382Z,14.50
2019-05-10T21:03:00.230Z,14.50
2019-05-10T21:05:29.089Z,14.50
2019-05-10T21:07:57.979Z,14.40
2019-05-10T21:10:26.791Z,14.40
2019-05-10T21:12:55.619Z,14.40
2019-05-10T21:15:24.468Z,14.50
2019-05-10T21:17:53.297Z,14.40
2019-05-10T21:20:22.152Z,14.40
2019-05-10T21:22:50.995Z,14.40
2019-05-10T21:25:19.826Z,14.30
2019-05-10T21:27:48.715Z,14.30
2019-05-10T21:30:17.537Z,14.20
2019-05-10T21:32:46.366Z,14.20
2019-05-10T21:35:19.154Z,14.20
2019-05-10T21:37:48.059Z,14.30
2019-05-10T21:40:16.864Z,14.20
2019-05-10T21:42:46.444Z,14.10
2019-05-10T21:45:16.030Z,14.10
2019-05-10T21:47:51.519Z,14.00
2019-05-10T21:50:13.725Z,14.00
2019-05-10T21:52:42.574Z,14.00
2019-05-10T21:55:11.421Z,14.00
2019-05-10T21:57:40.321Z,14.00
2019-05-10T22:00:09.113Z,14.00
2019-05-10T22:02:37.948Z,14.00
2019-05-10T22:05:06.817Z,14.00
2019-05-10T22:07:35.668Z,14.00
2019-05-10T22:10:04.531Z,14.00
2019-05-10T22:12:33.333Z,13.90
2019-05-10T22:15:02.914Z,13.90
2019-05-10T22:17:31.738Z,14.00
2019-05-10T22:20:00.598Z,13.90
2019-05-10T22:22:29.436Z,13.80
2019-05-10T22:24:58.277Z,13.80
2019-05-10T22:27:27.111Z,13.70
2019-05-10T22:29:55.939Z,13.70
2019-05-10T22:32:24.780Z,13.70
2019-05-10T22:34:53.627Z,13.60
2019-05-10T22:37:22.455Z,13.60
2019-05-10T22:39:51.297Z,13.60
2019-05-10T22:42:20.143Z,13.50
2019-05-10T22:44:48.982Z,13.50
2019-05-10T22:47:17.849Z,13.50
2019-05-10T22:49:46.690Z,13.50
2019-05-10T22:52:15.547Z,13.50
2019-05-10T22:54:44.381Z,13.40
2019-05-10T22:57:13.222Z,13.40
2019-05-10T23:02:12.238Z,13.30
2019-05-10T23:04:41.074Z,13.30
2019-05-10T23:07:09.921Z,13.40
2019-05-10T23:09:38.751Z,13.40
2019-05-10T23:12:07.603Z,13.40
2019-05-10T23:14:37.197Z,13.30
2019-05-10T23:17:06.039Z,13.30
2019-05-10T23:19:34.903Z,13.20
2019-05-10T23:22:03.755Z,13.20
2019-05-10T23:24:36.425Z,13.10
2019-05-10T23:27:05.252Z,13.10
2019-05-10T23:29:34.102Z,13.10
2019-05-10T23:32:02.942Z,13.00
2019-05-10T23:34:31.781Z,13.00
2019-05-10T23:37:00.619Z,13.00
2019-05-10T23:39:40.166Z,12.90
2019-05-10T23:41:59.081Z,12.90
2019-05-10T23:44:27.921Z,12.90
2019-05-10T23:46:56.761Z,12.90
2019-05-10T23:49:25.601Z,12.80
2019-05-10T23:51:54.432Z,12.90
2019-05-10T23:54:23.271Z,12.90
2019-05-10T23:56:52.129Z,12.90
2019-05-10T23:59:20.971Z,12.90
